Terminal Aerodrome Forecast
Issued by NWS

Current Version | Previous Version | Text Only | Print | Product List | Glossary Off
Versions: 1 2 3 4 5 6 7 8 9 10 11 12 13 14 15 16 17 18 19 20

000
FTUS44 KSJT 280520
TAFSOA
TAF
KSOA 280520Z 2806/2906 15004KT P6SM SKC
     FM280900 VRB03KT P6SM BKN012
     FM281500 17009KT P6SM BKN035
     FM281700 16009KT P6SM SCT060=

USA.gov is the U.S. government's official web portal to all federal, state and local government web resources and services.